Time;durP1;ratioP1;P1;durP2;ratioP2;P2;SDS_P1;SDS_P2;PMS_P1;PMS_P2;Temp;Humidity;BMP_temperature;BMP_pressure;BME280_temperature;BME280_humidity;BME280_pressure;Samples;Min_cycle;Max_cycle;Signal;HPM_P1;HPM_P2
2023/01/02 00:01:24;;;;;;;11.55;4.97;;;;;;;;;;5083820;28;20048;-67
2023/01/02 00:03:53;;;;;;;12.07;4.05;;;;;;;;;;5094387;28;20397;-67
2023/01/02 00:06:19;;;;;;;;;;;;;;;;;;5085086;28;20097;-66
2023/01/02 00:08:45;;;;;;;13.48;4.60;;;;;;;;;;5086494;28;20540;-66
2023/01/02 00:11:12;;;;;;;10.27;4.47;;;;;;;;;;5085045;28;20417;-66
2023/01/02 00:13:38;;;;;;;13.43;4.60;;;;;;;;;;5089242;28;20398;-68
2023/01/02 00:16:05;;;;;;;10.23;3.90;;;;;;;;;;5083820;28;20117;-67
2023/01/02 00:18:31;;;;;;;11.57;4.70;;;;;;;;;;5089083;28;20055;-67
2023/01/02 00:21:01;;;;;;;10.85;4.45;;;;;;;;;;5103398;28;20097;-66
2023/01/02 00:23:27;;;;;;;10.32;4.80;;;;;;;;;;5086784;28;20547;-66
2023/01/02 00:25:53;;;;;;;14.82;5.03;;;;;;;;;;5096120;28;20545;-66
2023/01/02 00:28:20;;;;;;;8.27;4.43;;;;;;;;;;5079260;28;20047;-66
2023/01/02 00:30:46;;;;;;;11.85;4.43;;;;;;;;;;5091619;28;20054;-67
2023/01/02 00:33:13;;;;;;;11.57;4.60;;;;;;;;;;5084940;28;20058;-66
2023/01/02 00:35:39;;;;;;;8.98;3.78;;;;;;;;;;5091237;28;20495;-67
2023/01/02 00:38:06;;;;;;;12.68;4.80;;;;;;;;;;5090786;28;20052;-67
2023/01/02 00:40:32;;;;;;;14.25;4.82;;;;;;;;;;5092523;28;20066;-67
2023/01/02 00:42:59;;;;;;;10.20;4.53;;;;;;;;;;5090545;28;20047;-67
2023/01/02 00:45:25;;;;;;;11.82;4.55;;;;;;;;;;5085579;28;20079;-66
2023/01/02 00:47:51;;;;;;;10.57;4.00;;;;;;;;;;5098258;28;20412;-67
2023/01/02 00:50:18;;;;;;;15.85;4.32;;;;;;;;;;5098162;28;20044;-66
2023/01/02 00:52:44;;;;;;;11.57;4.20;;;;;;;;;;5084070;28;20072;-67
2023/01/02 00:55:11;;;;;;;9.90;4.25;;;;;;;;;;5096169;28;20058;-67
2023/01/02 00:57:37;;;;;;;10.10;4.00;;;;;;;;;;5082087;28;20044;-67
2023/01/02 01:00:04;;;;;;;7.82;3.90;;;;;;;;;;5089842;28;20051;-67
2023/01/02 01:02:30;;;;;;;12.02;4.03;;;;;;;;;;5081344;27;20044;-67
2023/01/02 01:04:57;;;;;;;10.57;4.22;;;;;;;;;;5090849;28;20128;-67
2023/01/02 01:07:23;;;;;;;11.70;4.05;;;;;;;;;;5091812;28;20435;-67
2023/01/02 01:09:50;;;;;;;11.20;4.93;;;;;;;;;;5074292;28;20633;-68
2023/01/02 01:12:16;;;;;;;13.15;4.13;;;;;;;;;;5081111;28;20060;-67
2023/01/02 01:14:42;;;;;;;10.32;4.00;;;;;;;;;;5084918;28;20051;-67
2023/01/02 01:17:09;;;;;;;10.15;4.53;;;;;;;;;;5096979;28;20105;-67
2023/01/02 01:19:35;;;;;;;15.52;4.20;;;;;;;;;;5081141;28;20046;-68
2023/01/02 01:22:02;;;;;;;9.45;4.93;;;;;;;;;;5086566;28;20052;-66
2023/01/02 01:24:28;;;;;;;12.35;3.80;;;;;;;;;;5080413;28;20131;-67
2023/01/02 01:26:54;;;;;;;8.85;4.05;;;;;;;;;;5075099;28;20131;-67
2023/01/02 01:29:21;;;;;;;11.38;4.40;;;;;;;;;;5090217;28;20415;-67
2023/01/02 01:31:47;;;;;;;12.95;3.80;;;;;;;;;;5090005;28;20076;-67
2023/01/02 01:34:14;;;;;;;11.65;4.00;;;;;;;;;;5092941;28;20051;-67
2023/01/02 01:36:40;;;;;;;10.70;4.07;;;;;;;;;;5089108;28;20059;-67
2023/01/02 01:39:06;;;;;;;10.70;4.00;;;;;;;;;;5087922;28;20052;-67
2023/01/02 01:41:33;;;;;;;12.07;4.20;;;;;;;;;;5094213;28;20051;-68
2023/01/02 01:44:00;;;;;;;8.82;3.92;;;;;;;;;;5082262;28;20062;-68
2023/01/02 01:46:35;;;;;;;7.45;3.42;;;;;;;;;;5105250;27;20416;-67
2023/01/02 01:49:08;;;;;;;10.88;4.10;;;;;;;;;;5085397;28;20048;-68
2023/01/02 01:51:38;;;;;;;11.32;3.55;;;;;;;;;;5092204;28;20047;-67
2023/01/02 01:54:07;;;;;;;8.38;4.10;;;;;;;;;;5094010;28;20048;-67
2023/01/02 01:56:39;;;;;;;11.05;4.30;;;;;;;;;;5080135;28;20044;-67
2023/01/02 01:59:07;;;;;;;11.80;3.95;;;;;;;;;;5088734;28;20056;-66
2023/01/02 02:01:34;;;;;;;12.35;4.20;;;;;;;;;;5082947;28;20093;-67
2023/01/02 02:04:01;;;;;;;8.30;3.70;;;;;;;;;;5089843;28;20129;-66
2023/01/02 02:06:27;;;;;;;12.80;3.90;;;;;;;;;;5080733;28;20052;-67
2023/01/02 02:08:56;;;;;;;12.05;4.05;;;;;;;;;;5091885;28;20527;-67
2023/01/02 02:11:23;;;;;;;8.80;3.80;;;;;;;;;;5092249;28;20625;-66
2023/01/02 02:13:49;;;;;;;7.40;3.88;;;;;;;;;;5085852;28;20059;-67
2023/01/02 02:16:15;;;;;;;12.55;3.83;;;;;;;;;;5090970;28;20060;-66
2023/01/02 02:18:42;;;;;;;10.48;3.70;;;;;;;;;;5092070;28;20047;-67
2023/01/02 02:21:08;;;;;;;11.27;3.88;;;;;;;;;;5105186;28;20058;-66
2023/01/02 02:23:37;;;;;;;11.48;3.50;;;;;;;;;;5081954;28;20499;-67
2023/01/02 02:26:22;;;;;;;8.40;3.20;;;;;;;;;;5072479;28;20772;-66
2023/01/02 02:29:12;;;;;;;7.60;3.63;;;;;;;;;;5094067;28;20063;-66
2023/01/02 02:31:41;;;;;;;11.02;4.03;;;;;;;;;;5058210;28;20250;-66
2023/01/02 02:34:20;;;;;;;12.30;3.90;;;;;;;;;;5088376;28;20044;-66
2023/01/02 02:36:52;;;;;;;14.20;4.10;;;;;;;;;;5082409;28;20040;-66
2023/01/02 02:39:36;;;;;;;14.57;4.30;;;;;;;;;;5097320;27;20753;-66
2023/01/02 02:42:02;;;;;;;10.50;3.85;;;;;;;;;;5078296;28;20059;-66
2023/01/02 02:44:39;;;;;;;12.82;3.85;;;;;;;;;;5092002;27;20389;-66
2023/01/02 02:47:13;;;;;;;7.50;3.55;;;;;;;;;;5068624;28;20056;-66
2023/01/02 02:49:44;;;;;;;12.15;3.92;;;;;;;;;;5087940;28;20050;-66
2023/01/02 02:52:21;;;;;;;11.52;4.35;;;;;;;;;;5094720;28;20462;-65
2023/01/02 02:54:52;;;;;;;11.23;3.63;;;;;;;;;;5092921;28;20455;-65
2023/01/02 02:57:19;;;;;;;11.25;3.80;;;;;;;;;;5091917;28;20048;-65
2023/01/02 02:59:45;;;;;;;11.77;4.20;;;;;;;;;;5084927;28;20080;-66
2023/01/02 03:02:15;;;;;;;11.55;3.63;;;;;;;;;;5088267;28;20042;-65
2023/01/02 03:04:43;;;;;;;11.20;3.40;;;;;;;;;;5085846;28;20090;-66
2023/01/02 03:07:25;;;;;;;17.58;3.97;;;;;;;;;;5100104;28;20047;-66
2023/01/02 03:10:10;;;;;;;9.27;3.45;;;;;;;;;;5093199;28;20408;-66
2023/01/02 03:12:41;;;;;;;11.80;3.55;;;;;;;;;;5093495;28;20044;-65
2023/01/02 03:15:08;;;;;;;7.93;3.25;;;;;;;;;;5092505;28;20039;-65
2023/01/02 03:17:34;;;;;;;7.53;3.50;;;;;;;;;;5081639;28;20048;-65
2023/01/02 03:20:05;;;;;;;10.10;3.65;;;;;;;;;;5088719;28;20051;-65
2023/01/02 03:22:34;;;;;;;10.05;3.40;;;;;;;;;;5088143;28;20401;-64
2023/01/02 03:25:01;;;;;;;16.20;4.40;;;;;;;;;;5076191;28;20043;-64
2023/01/02 03:27:29;;;;;;;9.30;3.43;;;;;;;;;;5103855;28;20104;-64
2023/01/02 03:30:04;;;;;;;12.18;3.65;;;;;;;;;;5093324;28;20338;-64
2023/01/02 03:32:35;;;;;;;5.95;2.85;;;;;;;;;;5100548;28;20048;-65
2023/01/02 03:35:05;;;;;;;12.23;3.25;;;;;;;;;;5085319;28;20048;-65
2023/01/02 03:37:33;;;;;;;11.68;3.17;;;;;;;;;;5105430;28;20051;-65
2023/01/02 03:39:59;;;;;;;;;;;;;;;;;;5085838;28;20048;-64
2023/01/02 03:42:27;;;;;;;10.38;4.28;;;;;;;;;;5094793;28;19924;-66
2023/01/02 03:45:03;;;;;;;8.65;3.28;;;;;;;;;;5105316;28;20446;-65
2023/01/02 03:47:42;;;;;;;12.65;3.65;;;;;;;;;;5089554;28;20052;-66
2023/01/02 03:50:10;;;;;;;8.63;3.28;;;;;;;;;;5096594;28;20051;-64
2023/01/02 03:52:37;;;;;;;9.20;3.03;;;;;;;;;;5087696;28;20315;-66
2023/01/02 03:55:04;;;;;;;9.52;4.07;;;;;;;;;;5100088;28;20075;-65
2023/01/02 03:57:33;;;;;;;13.65;3.63;;;;;;;;;;5094331;28;20048;-65
2023/01/02 04:00:11;;;;;;;10.82;3.13;;;;;;;;;;5101816;28;20421;-65
2023/01/02 04:02:39;;;;;;;11.93;3.15;;;;;;;;;;5094425;27;20135;-65
2023/01/02 04:05:11;;;;;;;11.70;4.20;;;;;;;;;;5086307;28;20051;-65
2023/01/02 04:07:53;;;;;;;10.75;3.63;;;;;;;;;;5092068;28;20066;-65
2023/01/02 04:10:20;;;;;;;9.68;3.90;;;;;;;;;;5074616;28;20052;-65
2023/01/02 04:12:49;;;;;;;13.07;3.47;;;;;;;;;;5089808;28;20051;-65
2023/01/02 04:15:17;;;;;;;7.03;3.13;;;;;;;;;;5093556;28;20063;-64
2023/01/02 04:17:50;;;;;;;12.25;3.65;;;;;;;;;;5099818;28;20051;-65
2023/01/02 04:20:20;;;;;;;18.13;3.30;;;;;;;;;;5095705;28;20056;-65
2023/01/02 04:23:06;;;;;;;10.40;3.53;;;;;;;;;;5098796;28;20041;-64
2023/01/02 04:25:36;;;;;;;7.57;2.65;;;;;;;;;;5085477;28;20055;-65
2023/01/02 04:28:08;;;;;;;11.65;3.63;;;;;;;;;;5091726;28;20047;-65
2023/01/02 04:30:38;;;;;;;8.32;3.20;;;;;;;;;;5093486;28;20070;-65
2023/01/02 04:33:06;;;;;;;8.90;3.10;;;;;;;;;;5094680;28;20040;-65
2023/01/02 04:35:33;;;;;;;7.60;3.05;;;;;;;;;;5103578;28;20039;-66
2023/01/02 04:38:06;;;;;;;10.65;3.30;;;;;;;;;;5079934;28;20508;-65
2023/01/02 04:40:36;;;;;;;7.35;3.10;;;;;;;;;;5087563;28;20048;-65
2023/01/02 04:43:20;;;;;;;11.05;3.33;;;;;;;;;;5093379;28;20130;-64
2023/01/02 04:45:47;;;;;;;7.43;3.40;;;;;;;;;;5096004;28;20054;-64
2023/01/02 04:48:14;;;;;;;6.25;3.55;;;;;;;;;;5093645;28;20564;-64
2023/01/02 04:50:40;;;;;;;7.07;2.83;;;;;;;;;;5089826;28;20555;-64
2023/01/02 04:53:08;;;;;;;6.63;3.85;;;;;;;;;;5093707;28;20063;-64
2023/01/02 04:55:34;;;;;;;9.53;3.73;;;;;;;;;;5096213;28;20491;-64
2023/01/02 04:58:01;;;;;;;12.13;3.30;;;;;;;;;;5099844;28;20574;-64
2023/01/02 05:00:27;;;;;;;8.00;2.78;;;;;;;;;;5098359;28;20040;-64
2023/01/02 05:02:53;;;;;;;5.32;2.90;;;;;;;;;;5095946;28;20039;-65
2023/01/02 05:05:20;;;;;;;10.00;3.05;;;;;;;;;;5097857;28;20048;-64
2023/01/02 05:07:46;;;;;;;9.57;3.42;;;;;;;;;;5087523;28;20549;-64
2023/01/02 05:10:12;;;;;;;10.18;3.58;;;;;;;;;;5101772;28;20059;-64
2023/01/02 05:12:39;;;;;;;9.48;3.60;;;;;;;;;;5099938;28;20062;-64
2023/01/02 05:15:06;;;;;;;8.18;3.28;;;;;;;;;;5105613;28;20051;-64
2023/01/02 05:17:33;;;;;;;9.68;3.83;;;;;;;;;;5101081;28;20556;-64
2023/01/02 05:19:59;;;;;;;11.38;3.28;;;;;;;;;;5082762;28;20044;-65
2023/01/02 05:25:11;;;;;;;11.20;4.72;;;;;;;;;;5086984;28;20556;-65
2023/01/02 05:27:37;;;;;;;9.70;3.78;;;;;;;;;;5102770;28;20059;-64
2023/01/02 05:30:04;;;;;;;6.75;3.63;;;;;;;;;;5098290;28;20101;-65
2023/01/02 05:32:30;;;;;;;7.03;3.40;;;;;;;;;;5105348;27;20055;-65
2023/01/02 05:34:56;;;;;;;7.03;3.15;;;;;;;;;;5098231;28;20047;-65
2023/01/02 05:37:23;;;;;;;8.80;3.13;;;;;;;;;;5103959;28;20048;-65
2023/01/02 05:39:49;;;;;;;9.00;3.10;;;;;;;;;;5103198;28;20042;-65
2023/01/02 05:42:15;;;;;;;9.88;3.60;;;;;;;;;;5093763;28;20510;-65
2023/01/02 05:44:42;;;;;;;7.15;2.67;;;;;;;;;;5101196;28;21495;-65
2023/01/02 05:47:08;;;;;;;8.77;2.95;;;;;;;;;;5084559;28;20048;-65
2023/01/02 05:49:41;;;;;;;8.10;3.30;;;;;;;;;;5089916;28;20070;-65
2023/01/02 05:52:07;;;;;;;10.35;3.72;;;;;;;;;;5086976;28;20050;-65
2023/01/02 05:54:34;;;;;;;10.05;3.17;;;;;;;;;;5105634;28;20385;-64
2023/01/02 05:57:00;;;;;;;6.38;2.90;;;;;;;;;;5106465;28;20054;-64
2023/01/02 05:59:26;;;;;;;8.13;3.33;;;;;;;;;;5098128;28;20051;-64
2023/01/02 06:01:52;;;;;;;7.10;3.35;;;;;;;;;;5087147;28;20051;-64
2023/01/02 06:04:19;;;;;;;11.98;3.13;;;;;;;;;;5090616;28;20062;-64
2023/01/02 06:06:46;;;;;;;8.02;2.88;;;;;;;;;;5096812;28;20138;-64
2023/01/02 06:09:13;;;;;;;7.63;3.35;;;;;;;;;;5096599;28;20056;-64
2023/01/02 06:11:39;;;;;;;9.52;3.63;;;;;;;;;;5087466;28;20044;-64
2023/01/02 06:14:07;;;;;;;13.13;3.10;;;;;;;;;;5097249;28;20040;-64
2023/01/02 06:16:33;;;;;;;9.57;3.25;;;;;;;;;;5083329;28;20054;-65
2023/01/02 06:18:59;;;;;;;10.73;3.25;;;;;;;;;;5087839;28;20078;-65
2023/01/02 06:21:26;;;;;;;5.82;2.90;;;;;;;;;;5093276;28;20047;-65
2023/01/02 06:23:53;;;;;;;6.90;3.08;;;;;;;;;;5087132;28;20052;-66
2023/01/02 06:26:20;;;;;;;8.05;2.70;;;;;;;;;;5101350;28;20448;-65
2023/01/02 06:28:48;;;;;;;9.80;3.85;;;;;;;;;;5092175;27;20047;-65
2023/01/02 06:31:15;;;;;;;9.75;3.30;;;;;;;;;;5099892;28;20050;-65
2023/01/02 06:33:42;;;;;;;5.88;3.33;;;;;;;;;;5090893;28;20482;-64
2023/01/02 06:36:13;;;;;;;7.75;3.08;;;;;;;;;;5072954;28;20044;-64
2023/01/02 06:38:39;;;;;;;8.35;2.90;;;;;;;;;;5092593;28;20830;-64
2023/01/02 06:41:06;;;;;;;5.78;3.20;;;;;;;;;;5085375;28;20043;-64
2023/01/02 06:43:34;;;;;;;6.38;3.22;;;;;;;;;;5090026;28;20178;-64
2023/01/02 06:46:01;;;;;;;9.38;3.50;;;;;;;;;;5089386;28;20416;-65
2023/01/02 06:48:31;;;;;;;7.60;2.72;;;;;;;;;;5095061;28;20044;-66
2023/01/02 06:51:00;;;;;;;5.55;2.80;;;;;;;;;;5082920;28;20036;-64
2023/01/02 06:53:26;;;;;;;2.15;1.27;;;;;;;;;;5091202;28;20044;-64
2023/01/02 06:55:54;;;;;;;2.08;1.35;;;;;;;;;;5087797;28;20067;-65
2023/01/02 06:58:20;;;;;;;1.00;0.90;;;;;;;;;;5078649;28;20059;-65
2023/01/02 07:00:47;;;;;;;1.38;0.88;;;;;;;;;;5093298;28;20078;-65
2023/01/02 07:03:14;;;;;;;1.40;0.50;;;;;;;;;;5086248;28;20052;-65
2023/01/02 07:05:40;;;;;;;0.40;0.40;;;;;;;;;;5090698;28;20136;-64
2023/01/02 07:08:07;;;;;;;0.40;0.40;;;;;;;;;;5101943;28;20134;-64
2023/01/02 07:10:34;;;;;;;0.70;0.32;;;;;;;;;;5102560;28;20175;-65
2023/01/02 07:13:00;;;;;;;0.30;0.30;;;;;;;;;;5089796;28;20112;-65
2023/01/02 07:15:26;;;;;;;1.17;0.40;;;;;;;;;;5089068;28;20514;-64
2023/01/02 07:17:53;;;;;;;0.40;0.35;;;;;;;;;;5096447;28;20043;-64
2023/01/02 07:20:20;;;;;;;0.40;0.40;;;;;;;;;;5083655;28;20058;-64
2023/01/02 07:22:50;;;;;;;0.60;0.50;;;;;;;;;;5097248;28;20415;-65
2023/01/02 07:25:20;;;;;;;0.88;0.52;;;;;;;;;;5093594;27;20048;-65
2023/01/02 07:27:46;;;;;;;4.05;0.90;;;;;;;;;;5092369;28;20051;-65
2023/01/02 07:30:13;;;;;;;1.90;1.08;;;;;;;;;;5089897;28;20048;-64
2023/01/02 07:32:39;;;;;;;1.25;1.10;;;;;;;;;;5083885;28;20040;-64
2023/01/02 07:35:06;;;;;;;1.42;1.20;;;;;;;;;;5094745;28;20044;-65
2023/01/02 07:37:32;;;;;;;1.85;1.40;;;;;;;;;;5086187;28;20572;-66
2023/01/02 07:39:58;;;;;;;1.40;1.30;;;;;;;;;;5093350;28;20046;-65
2023/01/02 07:42:25;;;;;;;3.22;1.80;;;;;;;;;;5092986;28;20097;-65
2023/01/02 07:44:51;;;;;;;2.83;1.65;;;;;;;;;;5073962;28;20044;-65
2023/01/02 07:47:18;;;;;;;4.72;1.70;;;;;;;;;;5096872;28;20432;-67
2023/01/02 07:49:44;;;;;;;2.75;1.63;;;;;;;;;;5084003;28;20048;-65
2023/01/02 07:52:11;;;;;;;3.17;2.45;;;;;;;;;;5097054;28;20793;-67
2023/01/02 07:54:37;;;;;;;3.42;2.08;;;;;;;;;;5087578;28;20552;-65
2023/01/02 07:57:03;;;;;;;3.75;2.35;;;;;;;;;;5083165;28;20048;-67
2023/01/02 07:59:30;;;;;;;4.65;2.65;;;;;;;;;;5088047;28;20094;-66
2023/01/02 08:01:57;;;;;;;3.67;2.80;;;;;;;;;;5081887;28;20039;-66
2023/01/02 08:04:23;;;;;;;4.88;3.10;;;;;;;;;;5101449;28;20043;-67
2023/01/02 08:06:49;;;;;;;4.20;3.08;;;;;;;;;;5100132;27;20046;-67
2023/01/02 08:09:17;;;;;;;4.43;3.08;;;;;;;;;;5072713;28;20048;-67
2023/01/02 08:11:43;;;;;;;6.10;3.90;;;;;;;;;;5088324;28;20446;-66
2023/01/02 08:14:09;;;;;;;5.55;3.63;;;;;;;;;;5087883;27;20052;-65
2023/01/02 08:16:35;;;;;;;5.72;4.25;;;;;;;;;;5100781;28;20047;-65
2023/01/02 08:19:02;;;;;;;8.02;5.53;;;;;;;;;;5081908;28;20058;-67
2023/01/02 08:21:28;;;;;;;7.90;6.05;;;;;;;;;;5097306;28;20044;-67
2023/01/02 08:23:54;;;;;;;8.18;6.00;;;;;;;;;;5086367;28;20051;-66
2023/01/02 08:26:24;;;;;;;10.63;8.10;;;;;;;;;;5086628;28;20130;-64
2023/01/02 08:28:50;;;;;;;10.35;7.75;;;;;;;;;;5099801;28;20047;-66
2023/01/02 08:31:18;;;;;;;10.77;7.82;;;;;;;;;;5093850;28;20050;-65
2023/01/02 08:33:45;;;;;;;11.45;8.43;;;;;;;;;;5092107;28;20120;-65
2023/01/02 08:36:11;;;;;;;9.38;7.90;;;;;;;;;;5087880;28;20056;-66
2023/01/02 08:38:38;;;;;;;10.35;8.00;;;;;;;;;;5077693;28;20339;-65
2023/01/02 08:41:04;;;;;;;10.93;9.18;;;;;;;;;;5091437;28;20043;-65
2023/01/02 08:43:34;;;;;;;12.45;8.90;;;;;;;;;;5095342;28;20048;-65
2023/01/02 08:46:05;;;;;;;12.55;9.80;;;;;;;;;;5099346;28;20788;-65
2023/01/02 08:48:31;;;;;;;12.60;9.48;;;;;;;;;;5089014;28;20094;-65
2023/01/02 08:50:58;;;;;;;11.15;9.60;;;;;;;;;;5095869;28;20389;-65
2023/01/02 08:53:24;;;;;;;9.93;7.55;;;;;;;;;;5088970;28;20043;-65
2023/01/02 08:55:50;;;;;;;9.18;7.22;;;;;;;;;;5104407;28;20043;-65
2023/01/02 08:58:16;;;;;;;10.05;7.28;;;;;;;;;;5095218;28;20052;-65
2023/01/02 09:00:43;;;;;;;10.90;7.60;;;;;;;;;;5092463;28;20059;-64
2023/01/02 09:03:09;;;;;;;7.82;5.93;;;;;;;;;;5090098;28;20165;-66
2023/01/02 09:05:36;;;;;;;7.47;5.57;;;;;;;;;;5091175;28;20782;-65
2023/01/02 09:08:02;;;;;;;7.03;5.10;;;;;;;;;;5092567;28;20051;-65
2023/01/02 09:10:28;;;;;;;6.50;5.10;;;;;;;;;;5084054;28;20419;-65
2023/01/02 09:12:55;;;;;;;7.22;5.20;;;;;;;;;;5095652;28;20438;-65
2023/01/02 09:15:21;;;;;;;8.05;6.25;;;;;;;;;;5096767;28;20051;-65
2023/01/02 09:17:47;;;;;;;6.93;5.50;;;;;;;;;;5081870;28;20044;-66
2023/01/02 09:20:14;;;;;;;7.47;5.25;;;;;;;;;;5088823;28;20401;-65
2023/01/02 09:22:40;;;;;;;7.53;6.00;;;;;;;;;;5087684;27;20040;-65
2023/01/02 09:25:07;;;;;;;8.70;5.93;;;;;;;;;;5095015;28;20084;-65
2023/01/02 09:27:33;;;;;;;7.13;5.53;;;;;;;;;;5089989;28;20052;-65
2023/01/02 09:29:59;;;;;;;6.95;5.40;;;;;;;;;;5093151;28;20470;-65
2023/01/02 09:32:25;;;;;;;7.57;5.55;;;;;;;;;;5100713;28;20047;-65
2023/01/02 09:34:52;;;;;;;7.82;5.15;;;;;;;;;;5086294;28;20117;-66
2023/01/02 09:37:18;;;;;;;7.00;4.50;;;;;;;;;;5098711;28;20048;-65
2023/01/02 09:39:45;;;;;;;5.82;4.00;;;;;;;;;;5094573;28;20040;-65
2023/01/02 09:42:13;;;;;;;4.57;3.33;;;;;;;;;;5087870;28;20481;-66
2023/01/02 09:44:42;;;;;;;4.65;3.03;;;;;;;;;;5095422;28;20120;-66
2023/01/02 09:47:08;;;;;;;;;;;;;;;;;;5101393;28;20142;-65
2023/01/02 09:49:48;;;;;;;3.40;2.38;;;;;;;;;;5089205;28;19947;-65
2023/01/02 09:52:18;;;;;;;4.32;2.53;;;;;;;;;;5081244;28;20044;-65
2023/01/02 09:54:45;;;;;;;4.45;2.15;;;;;;;;;;5103782;28;20051;-65
2023/01/02 09:57:21;;;;;;;3.83;2.00;;;;;;;;;;5096039;28;20047;-66
2023/01/02 09:59:53;;;;;;;3.17;1.95;;;;;;;;;;5102728;28;20127;-66
2023/01/02 10:02:28;;;;;;;5.82;2.10;;;;;;;;;;5089708;27;20066;-66
2023/01/02 10:05:01;;;;;;;5.95;2.28;;;;;;;;;;5100188;28;20138;-65
2023/01/02 10:07:33;;;;;;;6.03;2.00;;;;;;;;;;5100831;28;20058;-66
2023/01/02 10:10:14;;;;;;;3.22;1.52;;;;;;;;;;5093954;28;20481;-66
2023/01/02 10:12:59;;;;;;;5.15;1.90;;;;;;;;;;5079132;28;20449;-66
2023/01/02 10:15:26;;;;;;;3.40;1.60;;;;;;;;;;5090168;27;20488;-66
2023/01/02 10:17:56;;;;;;;4.40;1.80;;;;;;;;;;5090777;28;20424;-66
2023/01/02 10:20:26;;;;;;;4.22;1.75;;;;;;;;;;5082153;28;20040;-67
2023/01/02 10:22:58;;;;;;;5.45;1.98;;;;;;;;;;5092406;28;20097;-66
2023/01/02 10:25:38;;;;;;;5.30;1.67;;;;;;;;;;5094263;28;20055;-66
2023/01/02 10:28:15;;;;;;;5.43;1.70;;;;;;;;;;5096397;28;20051;-66
2023/01/02 10:30:45;;;;;;;3.25;1.50;;;;;;;;;;5094805;28;20412;-67
2023/01/02 10:33:22;;;;;;;5.38;2.10;;;;;;;;;;5087526;28;20054;-67
2023/01/02 10:36:00;;;;;;;4.40;1.50;;;;;;;;;;5104211;28;20043;-66
2023/01/02 10:38:36;;;;;;;5.95;2.00;;;;;;;;;;5086675;28;20055;-66
2023/01/02 10:41:03;;;;;;;5.85;1.83;;;;;;;;;;5107245;28;20404;-66
2023/01/02 10:43:33;;;;;;;4.90;1.77;;;;;;;;;;5094911;28;20760;-66
2023/01/02 10:46:00;;;;;;;6.40;2.20;;;;;;;;;;5097804;28;20039;-65
2023/01/02 10:48:29;;;;;;;4.32;1.90;;;;;;;;;;5080094;28;20130;-66
2023/01/02 10:50:56;;;;;;;6.03;2.03;;;;;;;;;;5080515;28;20054;-66
2023/01/02 10:53:31;;;;;;;6.40;2.22;;;;;;;;;;5093004;28;20081;-66
2023/01/02 10:56:04;;;;;;;5.07;2.47;;;;;;;;;;5089466;28;20112;-65
2023/01/02 10:58:32;;;;;;;5.07;2.47;;;;;;;;;;5101457;28;20048;-65
2023/01/02 11:01:06;;;;;;;4.35;1.83;;;;;;;;;;5082143;28;20047;-67
2023/01/02 11:03:32;;;;;;;4.90;2.17;;;;;;;;;;5102396;28;20052;-66
2023/01/02 11:05:59;;;;;;;5.60;2.17;;;;;;;;;;5086447;28;20054;-66
2023/01/02 11:08:53;;;;;;;6.05;2.15;;;;;;;;;;5093024;28;20597;-66
2023/01/02 11:11:21;;;;;;;5.47;2.03;;;;;;;;;;5097790;28;20502;-66
2023/01/02 11:13:50;;;;;;;6.05;2.25;;;;;;;;;;5079517;27;20047;-66
2023/01/02 11:16:21;;;;;;;4.70;2.10;;;;;;;;;;5085120;28;20044;-65
2023/01/02 11:18:51;;;;;;;3.90;2.00;;;;;;;;;;5085180;28;20075;-65
2023/01/02 11:21:29;;;;;;;5.10;2.30;;;;;;;;;;5108346;28;20089;-65
2023/01/02 11:23:57;;;;;;;5.97;1.92;;;;;;;;;;5096510;27;20511;-65
2023/01/02 11:26:23;;;;;;;6.60;1.48;;;;;;;;;;5099686;28;20062;-67
2023/01/02 11:28:51;;;;;;;5.45;1.50;;;;;;;;;;5091581;28;20503;-65
2023/01/02 11:31:18;;;;;;;3.37;1.50;;;;;;;;;;5099670;28;20055;-66
2023/01/02 11:33:45;;;;;;;4.03;1.45;;;;;;;;;;5100205;27;20802;-66
2023/01/02 11:36:11;;;;;;;6.28;1.85;;;;;;;;;;5088441;28;20083;-65
2023/01/02 11:38:42;;;;;;;3.83;1.75;;;;;;;;;;5087372;28;20040;-66
2023/01/02 11:41:21;;;;;;;5.55;1.90;;;;;;;;;;5083925;27;20063;-67
2023/01/02 11:43:53;;;;;;;3.28;2.03;;;;;;;;;;5094544;28;20054;-68
2023/01/02 11:46:38;;;;;;;4.28;1.92;;;;;;;;;;5106119;28;20055;-67
2023/01/02 11:49:06;;;;;;;7.22;2.60;;;;;;;;;;5096482;27;20131;-67
2023/01/02 11:51:34;;;;;;;8.43;2.73;;;;;;;;;;5096992;28;20044;-66
2023/01/02 11:54:03;;;;;;;6.63;2.27;;;;;;;;;;5087848;28;20043;-66
2023/01/02 11:56:32;;;;;;;5.88;2.60;;;;;;;;;;5092206;28;20492;-66
2023/01/02 11:59:03;;;;;;;7.90;2.80;;;;;;;;;;5089501;27;20807;-65
2023/01/02 12:01:48;;;;;;;5.82;2.83;;;;;;;;;;5099671;27;20050;-65
2023/01/02 12:04:15;;;;;;;8.07;2.72;;;;;;;;;;5085804;28;20127;-66
2023/01/02 12:06:44;;;;;;;6.07;2.75;;;;;;;;;;5092181;28;20048;-65
2023/01/02 12:09:12;;;;;;;7.90;3.05;;;;;;;;;;5097332;28;20049;-66
2023/01/02 12:11:40;;;;;;;6.80;3.08;;;;;;;;;;5089779;28;20051;-65
2023/01/02 12:14:15;;;;;;;7.88;3.00;;;;;;;;;;5101536;28;20484;-65
2023/01/02 12:16:55;;;;;;;8.23;3.03;;;;;;;;;;5094306;28;20160;-68
2023/01/02 12:19:54;;;;;;;7.38;3.17;;;;;;;;;;5095125;28;20408;-68
2023/01/02 12:22:28;;;;;;;5.32;3.05;;;;;;;;;;5036147;28;20048;-66
2023/01/02 12:24:54;;;;;;;7.85;2.85;;;;;;;;;;5098296;28;20044;-66
2023/01/02 12:27:27;;;;;;;10.18;3.40;;;;;;;;;;5105427;28;20127;-65
2023/01/02 12:30:07;;;;;;;6.65;3.50;;;;;;;;;;5086758;28;20086;-66
2023/01/02 12:32:41;;;;;;;7.97;3.00;;;;;;;;;;5094396;28;20067;-66
2023/01/02 12:35:32;;;;;;;6.88;2.97;;;;;;;;;;5092765;28;20055;-66
2023/01/02 12:37:59;;;;;;;7.35;2.85;;;;;;;;;;5089907;28;20051;-65
2023/01/02 12:40:25;;;;;;;8.95;3.30;;;;;;;;;;5092678;27;20040;-66
2023/01/02 12:43:04;;;;;;;8.63;2.72;;;;;;;;;;5095250;28;20428;-67
2023/01/02 12:45:30;;;;;;;;;;;;;;;;;;5095300;28;20047;-66
2023/01/02 12:48:08;;;;;;;8.73;2.33;;;;;;;;;;5093426;28;19998;-66
2023/01/02 12:50:41;;;;;;;7.53;2.78;;;;;;;;;;5098867;28;20261;-66
2023/01/02 12:53:33;;;;;;;8.00;2.75;;;;;;;;;;5082677;28;21106;-66
2023/01/02 12:56:15;;;;;;;5.70;2.92;;;;;;;;;;5101999;28;20397;-66
2023/01/02 12:58:52;;;;;;;7.43;2.92;;;;;;;;;;5095824;28;20048;-67
2023/01/02 13:01:34;;;;;;;5.88;3.10;;;;;;;;;;5102168;28;20123;-65
2023/01/02 13:04:03;;;;;;;12.20;3.22;;;;;;;;;;5092513;28;20126;-67
2023/01/02 13:06:39;;;;;;;8.18;3.15;;;;;;;;;;5094959;28;20431;-66
2023/01/02 13:09:19;;;;;;;5.75;2.78;;;;;;;;;;5084875;28;20048;-66
2023/01/02 13:12:00;;;;;;;7.25;3.47;;;;;;;;;;5083908;28;20040;-66
2023/01/02 13:14:31;;;;;;;13.05;4.05;;;;;;;;;;5098333;28;20126;-66
2023/01/02 13:17:16;;;;;;;6.78;3.42;;;;;;;;;;5096706;28;20040;-65
2023/01/02 13:19:47;;;;;;;10.85;4.63;;;;;;;;;;5099326;28;20043;-66
2023/01/02 13:22:36;;;;;;;8.95;4.30;;;;;;;;;;5093346;28;20055;-65
2023/01/02 13:25:03;;;;;;;11.10;4.20;;;;;;;;;;5064730;28;20775;-67
2023/01/02 13:27:30;;;;;;;7.15;4.18;;;;;;;;;;5098343;28;20094;-68
2023/01/02 13:30:00;;;;;;;8.80;4.78;;;;;;;;;;5105942;27;20044;-67
2023/01/02 13:32:27;;;;;;;14.20;5.25;;;;;;;;;;5070583;28;20040;-69
2023/01/02 13:34:55;;;;;;;10.10;5.25;;;;;;;;;;5094730;28;20446;-67
2023/01/02 13:37:23;;;;;;;11.55;5.70;;;;;;;;;;5100489;28;20059;-67
2023/01/02 13:39:53;;;;;;;8.48;5.55;;;;;;;;;;5090986;28;20047;-67
2023/01/02 13:45:17;;;;;;;8.00;5.20;;;;;;;;;;5092591;28;20474;-67
2023/01/02 13:47:47;;;;;;;10.48;6.07;;;;;;;;;;5087927;28;20105;-67
2023/01/02 13:50:23;;;;;;;11.88;5.80;;;;;;;;;;5081765;28;20066;-67
2023/01/02 13:52:58;;;;;;;10.05;6.63;;;;;;;;;;5103655;28;20098;-67
2023/01/02 13:55:30;;;;;;;11.82;6.82;;;;;;;;;;5088233;28;20806;-66
2023/01/02 13:58:12;;;;;;;12.80;6.47;;;;;;;;;;5099506;27;20043;-66
2023/01/02 14:00:44;;;;;;;16.77;6.97;;;;;;;;;;5094771;28;20096;-65
2023/01/02 14:03:19;;;;;;;10.23;6.82;;;;;;;;;;5086419;28;20576;-66
2023/01/02 14:05:57;;;;;;;12.35;7.60;;;;;;;;;;5095999;28;20057;-65
2023/01/02 14:08:31;;;;;;;16.15;7.85;;;;;;;;;;5096926;28;20048;-67
2023/01/02 14:11:06;;;;;;;14.65;7.30;;;;;;;;;;5099420;28;20044;-66
2023/01/02 14:13:36;;;;;;;11.93;7.75;;;;;;;;;;5089853;28;20065;-66
2023/01/02 14:16:21;;;;;;;11.77;7.90;;;;;;;;;;5092786;28;20056;-66
2023/01/02 14:19:06;;;;;;;10.30;7.47;;;;;;;;;;5086183;28;20415;-65
2023/01/02 14:21:33;;;;;;;17.55;8.93;;;;;;;;;;5097543;28;20396;-65
2023/01/02 14:24:01;;;;;;;11.98;8.50;;;;;;;;;;5089757;28;20044;-65
2023/01/02 14:26:49;;;;;;;15.32;8.70;;;;;;;;;;5097014;28;20047;-66
2023/01/02 14:29:16;;;;;;;14.43;8.60;;;;;;;;;;5107519;28;20067;-66
2023/01/02 14:31:42;;;;;;;15.95;8.88;;;;;;;;;;5096902;28;20081;-67
2023/01/02 14:34:10;;;;;;;17.13;8.98;;;;;;;;;;5095096;28;20044;-65
2023/01/02 14:36:41;;;;;;;14.57;9.10;;;;;;;;;;5092948;28;20044;-66
2023/01/02 14:39:19;;;;;;;17.83;10.20;;;;;;;;;;5090933;28;20044;-65
2023/01/02 14:44:58;;;;;;;17.08;8.95;;;;;;;;;;5063307;28;20051;-65
2023/01/02 14:47:31;;;;;;;14.95;9.40;;;;;;;;;;5090806;28;20420;-66
2023/01/02 14:50:00;;;;;;;14.85;8.90;;;;;;;;;;5101536;28;20181;-65
2023/01/02 14:52:29;;;;;;;18.75;9.65;;;;;;;;;;5107414;28;20047;-66
2023/01/02 14:54:59;;;;;;;14.88;8.95;;;;;;;;;;5098545;27;20512;-66
2023/01/02 14:57:33;;;;;;;16.35;9.48;;;;;;;;;;5101157;28;20044;-65
2023/01/02 15:00:01;;;;;;;14.23;9.27;;;;;;;;;;5088698;28;20416;-66
2023/01/02 15:02:33;;;;;;;17.10;9.33;;;;;;;;;;5106677;27;20050;-66